sensor_id;sensor_type;location;lat;lon;timestamp;P1;durP1;ratioP1;P2;durP2;ratioP2
25715;SDS011;13573;50.936;4.328;2023-05-01T00:01:25;7.93;;;5.17;;
25715;SDS011;13573;50.936;4.328;2023-05-01T00:03:52;6.77;;;4.40;;
25715;SDS011;13573;50.936;4.328;2023-05-01T00:06:18;7.27;;;4.60;;
25715;SDS011;13573;50.936;4.328;2023-05-01T00:08:45;8.23;;;4.90;;
25715;SDS011;13573;50.936;4.328;2023-05-01T00:11:12;8.17;;;4.80;;
25715;SDS011;13573;50.936;4.328;2023-05-01T00:13:39;7.00;;;4.43;;
25715;SDS011;13573;50.936;4.328;2023-05-01T00:16:07;7.00;;;4.20;;
25715;SDS011;13573;50.936;4.328;2023-05-01T00:18:34;9.13;;;4.83;;
25715;SDS011;13573;50.936;4.328;2023-05-01T00:21:01;6.70;;;4.70;;
25715;SDS011;13573;50.936;4.328;2023-05-01T00:23:28;9.97;;;4.70;;
25715;SDS011;13573;50.936;4.328;2023-05-01T00:25:55;6.67;;;4.83;;
25715;SDS011;13573;50.936;4.328;2023-05-01T00:28:21;5.53;;;3.93;;
25715;SDS011;13573;50.936;4.328;2023-05-01T00:30:48;9.17;;;4.47;;
25715;SDS011;13573;50.936;4.328;2023-05-01T00:33:15;7.47;;;4.37;;
25715;SDS011;13573;50.936;4.328;2023-05-01T00:35:42;6.47;;;4.40;;
25715;SDS011;13573;50.936;4.328;2023-05-01T00:38:09;8.83;;;4.10;;
25715;SDS011;13573;50.936;4.328;2023-05-01T00:40:42;6.40;;;4.37;;
25715;SDS011;13573;50.936;4.328;2023-05-01T00:43:10;6.00;;;4.40;;
25715;SDS011;13573;50.936;4.328;2023-05-01T00:45:37;6.63;;;4.33;;
25715;SDS011;13573;50.936;4.328;2023-05-01T00:48:05;8.07;;;4.53;;
25715;SDS011;13573;50.936;4.328;2023-05-01T00:50:32;5.80;;;4.10;;
25715;SDS011;13573;50.936;4.328;2023-05-01T00:52:59;4.20;;;3.33;;
25715;SDS011;13573;50.936;4.328;2023-05-01T00:55:26;6.40;;;3.57;;
25715;SDS011;13573;50.936;4.328;2023-05-01T00:57:53;4.60;;;3.80;;
25715;SDS011;13573;50.936;4.328;2023-05-01T01:00:20;5.97;;;3.80;;
25715;SDS011;13573;50.936;4.328;2023-05-01T01:02:49;6.07;;;4.20;;
25715;SDS011;13573;50.936;4.328;2023-05-01T01:05:16;5.50;;;3.73;;
25715;SDS011;13573;50.936;4.328;2023-05-01T01:07:50;5.87;;;4.00;;
25715;SDS011;13573;50.936;4.328;2023-05-01T01:10:29;5.80;;;3.90;;
25715;SDS011;13573;50.936;4.328;2023-05-01T01:13:32;4.93;;;3.60;;
25715;SDS011;13573;50.936;4.328;2023-05-01T01:15:45;6.60;;;4.30;;
25715;SDS011;13573;50.936;4.328;2023-05-01T01:18:20;6.87;;;4.43;;
25715;SDS011;13573;50.936;4.328;2023-05-01T01:23:32;5.93;;;4.07;;
25715;SDS011;13573;50.936;4.328;2023-05-01T01:26:26;5.03;;;4.00;;
25715;SDS011;13573;50.936;4.328;2023-05-01T01:34:32;8.47;;;4.10;;
25715;SDS011;13573;50.936;4.328;2023-05-01T01:37:02;3.80;;;3.20;;
25715;SDS011;13573;50.936;4.328;2023-05-01T01:39:42;4.73;;;3.63;;
25715;SDS011;13573;50.936;4.328;2023-05-01T01:42:06;6.03;;;3.90;;
25715;SDS011;13573;50.936;4.328;2023-05-01T01:44:37;7.43;;;4.60;;
25715;SDS011;13573;50.936;4.328;2023-05-01T01:47:06;8.00;;;5.10;;
25715;SDS011;13573;50.936;4.328;2023-05-01T01:49:36;6.20;;;4.67;;
25715;SDS011;13573;50.936;4.328;2023-05-01T01:52:03;12.50;;;5.23;;
25715;SDS011;13573;50.936;4.328;2023-05-01T01:54:34;7.73;;;4.83;;
25715;SDS011;13573;50.936;4.328;2023-05-01T01:57:03;8.93;;;5.13;;
25715;SDS011;13573;50.936;4.328;2023-05-01T01:59:32;6.67;;;4.80;;
25715;SDS011;13573;50.936;4.328;2023-05-01T02:01:59;7.17;;;5.00;;
25715;SDS011;13573;50.936;4.328;2023-05-01T02:04:27;7.13;;;4.90;;
25715;SDS011;13573;50.936;4.328;2023-05-01T02:06:57;8.77;;;5.57;;
25715;SDS011;13573;50.936;4.328;2023-05-01T02:09:24;9.73;;;6.00;;
25715;SDS011;13573;50.936;4.328;2023-05-01T02:11:53;11.97;;;6.10;;
25715;SDS011;13573;50.936;4.328;2023-05-01T02:14:20;8.90;;;5.80;;
25715;SDS011;13573;50.936;4.328;2023-05-01T02:16:50;8.50;;;6.00;;
25715;SDS011;13573;50.936;4.328;2023-05-01T02:19:18;8.17;;;6.23;;
25715;SDS011;13573;50.936;4.328;2023-05-01T02:21:46;8.83;;;5.93;;
25715;SDS011;13573;50.936;4.328;2023-05-01T02:24:15;9.03;;;6.30;;
25715;SDS011;13573;50.936;4.328;2023-05-01T02:26:42;11.73;;;6.57;;
25715;SDS011;13573;50.936;4.328;2023-05-01T02:29:12;8.97;;;5.97;;
25715;SDS011;13573;50.936;4.328;2023-05-01T02:31:39;7.97;;;5.77;;
25715;SDS011;13573;50.936;4.328;2023-05-01T02:34:05;9.73;;;6.13;;
25715;SDS011;13573;50.936;4.328;2023-05-01T02:36:32;11.60;;;6.57;;
25715;SDS011;13573;50.936;4.328;2023-05-01T02:38:59;10.63;;;6.47;;
25715;SDS011;13573;50.936;4.328;2023-05-01T02:41:27;9.10;;;6.83;;
25715;SDS011;13573;50.936;4.328;2023-05-01T02:43:57;11.57;;;6.83;;
25715;SDS011;13573;50.936;4.328;2023-05-01T02:46:26;9.37;;;6.80;;
25715;SDS011;13573;50.936;4.328;2023-05-01T02:48:55;11.67;;;6.90;;
25715;SDS011;13573;50.936;4.328;2023-05-01T02:51:23;9.70;;;7.10;;
25715;SDS011;13573;50.936;4.328;2023-05-01T02:53:50;9.47;;;6.37;;
25715;SDS011;13573;50.936;4.328;2023-05-01T02:56:18;10.97;;;6.53;;
25715;SDS011;13573;50.936;4.328;2023-05-01T02:58:44;10.07;;;6.20;;
25715;SDS011;13573;50.936;4.328;2023-05-01T03:01:13;8.67;;;6.30;;
25715;SDS011;13573;50.936;4.328;2023-05-01T03:03:39;14.93;;;6.77;;
25715;SDS011;13573;50.936;4.328;2023-05-01T03:06:06;10.73;;;7.50;;
25715;SDS011;13573;50.936;4.328;2023-05-01T03:08:32;9.30;;;7.17;;
25715;SDS011;13573;50.936;4.328;2023-05-01T03:11:03;11.37;;;6.83;;
25715;SDS011;13573;50.936;4.328;2023-05-01T03:13:31;8.97;;;6.83;;
25715;SDS011;13573;50.936;4.328;2023-05-01T03:15:59;8.13;;;6.00;;
25715;SDS011;13573;50.936;4.328;2023-05-01T03:18:26;9.10;;;6.63;;
25715;SDS011;13573;50.936;4.328;2023-05-01T03:20:53;8.90;;;6.50;;
25715;SDS011;13573;50.936;4.328;2023-05-01T03:23:22;11.10;;;7.10;;
25715;SDS011;13573;50.936;4.328;2023-05-01T03:25:48;13.10;;;6.27;;
25715;SDS011;13573;50.936;4.328;2023-05-01T03:28:16;8.40;;;5.80;;
25715;SDS011;13573;50.936;4.328;2023-05-01T03:30:43;8.23;;;5.13;;
25715;SDS011;13573;50.936;4.328;2023-05-01T03:33:10;9.30;;;6.73;;
25715;SDS011;13573;50.936;4.328;2023-05-01T03:35:36;9.93;;;6.70;;
25715;SDS011;13573;50.936;4.328;2023-05-01T03:38:04;9.67;;;6.23;;
25715;SDS011;13573;50.936;4.328;2023-05-01T03:40:30;9.53;;;6.50;;
25715;SDS011;13573;50.936;4.328;2023-05-01T03:42:57;8.83;;;6.30;;
25715;SDS011;13573;50.936;4.328;2023-05-01T03:45:23;11.43;;;6.60;;
25715;SDS011;13573;50.936;4.328;2023-05-01T03:47:50;11.13;;;6.80;;
25715;SDS011;13573;50.936;4.328;2023-05-01T03:50:17;10.10;;;7.30;;
25715;SDS011;13573;50.936;4.328;2023-05-01T03:52:43;14.13;;;8.07;;
25715;SDS011;13573;50.936;4.328;2023-05-01T03:55:10;10.63;;;6.53;;
25715;SDS011;13573;50.936;4.328;2023-05-01T03:57:36;12.43;;;7.17;;
25715;SDS011;13573;50.936;4.328;2023-05-01T04:00:03;7.30;;;5.90;;
25715;SDS011;13573;50.936;4.328;2023-05-01T04:02:33;11.27;;;6.87;;
25715;SDS011;13573;50.936;4.328;2023-05-01T04:05:00;11.40;;;7.43;;
25715;SDS011;13573;50.936;4.328;2023-05-01T04:07:27;10.40;;;6.77;;
25715;SDS011;13573;50.936;4.328;2023-05-01T04:09:53;12.57;;;6.90;;
25715;SDS011;13573;50.936;4.328;2023-05-01T04:12:20;10.53;;;6.97;;
25715;SDS011;13573;50.936;4.328;2023-05-01T04:14:47;8.93;;;6.30;;
25715;SDS011;13573;50.936;4.328;2023-05-01T04:17:13;14.70;;;7.10;;
25715;SDS011;13573;50.936;4.328;2023-05-01T04:19:40;11.03;;;7.30;;
25715;SDS011;13573;50.936;4.328;2023-05-01T04:22:07;9.77;;;7.00;;
25715;SDS011;13573;50.936;4.328;2023-05-01T04:24:33;12.43;;;7.30;;
25715;SDS011;13573;50.936;4.328;2023-05-01T04:27:01;9.30;;;6.73;;
25715;SDS011;13573;50.936;4.328;2023-05-01T04:29:28;12.63;;;8.47;;
25715;SDS011;13573;50.936;4.328;2023-05-01T04:31:54;13.50;;;8.20;;
25715;SDS011;13573;50.936;4.328;2023-05-01T04:34:21;11.87;;;7.80;;
25715;SDS011;13573;50.936;4.328;2023-05-01T04:36:48;12.07;;;6.80;;
25715;SDS011;13573;50.936;4.328;2023-05-01T04:39:16;14.87;;;7.63;;
25715;SDS011;13573;50.936;4.328;2023-05-01T04:41:42;11.10;;;7.50;;
25715;SDS011;13573;50.936;4.328;2023-05-01T04:44:09;11.60;;;7.63;;
25715;SDS011;13573;50.936;4.328;2023-05-01T04:46:36;9.60;;;7.13;;
25715;SDS011;13573;50.936;4.328;2023-05-01T04:49:04;11.10;;;7.57;;
25715;SDS011;13573;50.936;4.328;2023-05-01T04:51:30;11.70;;;7.20;;
25715;SDS011;13573;50.936;4.328;2023-05-01T04:53:57;12.40;;;7.03;;
25715;SDS011;13573;50.936;4.328;2023-05-01T04:56:24;11.87;;;7.27;;
25715;SDS011;13573;50.936;4.328;2023-05-01T04:58:51;9.83;;;7.13;;
25715;SDS011;13573;50.936;4.328;2023-05-01T05:01:18;11.80;;;6.70;;
25715;SDS011;13573;50.936;4.328;2023-05-01T05:03:44;12.00;;;7.60;;
25715;SDS011;13573;50.936;4.328;2023-05-01T05:06:11;11.87;;;7.80;;
25715;SDS011;13573;50.936;4.328;2023-05-01T05:08:38;14.13;;;6.53;;
25715;SDS011;13573;50.936;4.328;2023-05-01T05:11:05;10.97;;;7.37;;
25715;SDS011;13573;50.936;4.328;2023-05-01T05:13:31;14.27;;;7.47;;
25715;SDS011;13573;50.936;4.328;2023-05-01T05:15:58;11.63;;;6.87;;
25715;SDS011;13573;50.936;4.328;2023-05-01T05:18:25;11.63;;;6.93;;
25715;SDS011;13573;50.936;4.328;2023-05-01T05:20:52;12.83;;;6.60;;
25715;SDS011;13573;50.936;4.328;2023-05-01T05:23:18;9.13;;;6.70;;
25715;SDS011;13573;50.936;4.328;2023-05-01T05:25:46;9.50;;;7.07;;
25715;SDS011;13573;50.936;4.328;2023-05-01T05:28:12;11.13;;;6.90;;
25715;SDS011;13573;50.936;4.328;2023-05-01T05:30:39;12.03;;;6.90;;
25715;SDS011;13573;50.936;4.328;2023-05-01T05:33:06;10.30;;;6.77;;
25715;SDS011;13573;50.936;4.328;2023-05-01T05:35:33;8.50;;;6.10;;
25715;SDS011;13573;50.936;4.328;2023-05-01T05:37:59;11.50;;;6.53;;
25715;SDS011;13573;50.936;4.328;2023-05-01T05:40:26;11.40;;;6.77;;
25715;SDS011;13573;50.936;4.328;2023-05-01T05:42:53;12.50;;;6.63;;
25715;SDS011;13573;50.936;4.328;2023-05-01T05:45:21;15.60;;;7.00;;
25715;SDS011;13573;50.936;4.328;2023-05-01T05:47:48;11.07;;;6.70;;
25715;SDS011;13573;50.936;4.328;2023-05-01T05:50:15;12.67;;;5.97;;
25715;SDS011;13573;50.936;4.328;2023-05-01T05:52:41;10.97;;;6.03;;
25715;SDS011;13573;50.936;4.328;2023-05-01T05:55:08;10.03;;;7.27;;
25715;SDS011;13573;50.936;4.328;2023-05-01T05:57:35;19.20;;;6.80;;
25715;SDS011;13573;50.936;4.328;2023-05-01T06:00:02;15.37;;;7.60;;
25715;SDS011;13573;50.936;4.328;2023-05-01T06:02:30;12.80;;;6.73;;
25715;SDS011;13573;50.936;4.328;2023-05-01T06:04:57;13.30;;;6.80;;
25715;SDS011;13573;50.936;4.328;2023-05-01T06:07:23;11.27;;;7.07;;
25715;SDS011;13573;50.936;4.328;2023-05-01T06:09:50;13.80;;;7.50;;
25715;SDS011;13573;50.936;4.328;2023-05-01T06:12:17;14.27;;;8.83;;
25715;SDS011;13573;50.936;4.328;2023-05-01T06:14:43;14.10;;;8.83;;
25715;SDS011;13573;50.936;4.328;2023-05-01T06:17:10;17.67;;;9.27;;
25715;SDS011;13573;50.936;4.328;2023-05-01T06:19:37;14.20;;;9.93;;
25715;SDS011;13573;50.936;4.328;2023-05-01T06:22:03;13.53;;;9.77;;
25715;SDS011;13573;50.936;4.328;2023-05-01T06:24:32;13.17;;;9.40;;
25715;SDS011;13573;50.936;4.328;2023-05-01T06:26:59;12.80;;;9.43;;
25715;SDS011;13573;50.936;4.328;2023-05-01T06:29:26;14.07;;;9.60;;
25715;SDS011;13573;50.936;4.328;2023-05-01T06:31:53;14.30;;;9.53;;
25715;SDS011;13573;50.936;4.328;2023-05-01T06:34:19;13.77;;;9.30;;
25715;SDS011;13573;50.936;4.328;2023-05-01T06:36:46;12.03;;;9.10;;
25715;SDS011;13573;50.936;4.328;2023-05-01T06:39:12;14.17;;;9.60;;
25715;SDS011;13573;50.936;4.328;2023-05-01T06:41:39;15.07;;;10.37;;
25715;SDS011;13573;50.936;4.328;2023-05-01T06:44:05;16.40;;;10.60;;
25715;SDS011;13573;50.936;4.328;2023-05-01T06:46:32;29.23;;;9.93;;
25715;SDS011;13573;50.936;4.328;2023-05-01T06:48:58;16.47;;;10.67;;
25715;SDS011;13573;50.936;4.328;2023-05-01T06:51:26;14.97;;;10.87;;
25715;SDS011;13573;50.936;4.328;2023-05-01T06:53:52;16.20;;;10.90;;
25715;SDS011;13573;50.936;4.328;2023-05-01T06:56:19;20.33;;;11.97;;
25715;SDS011;13573;50.936;4.328;2023-05-01T06:58:46;17.23;;;12.20;;
25715;SDS011;13573;50.936;4.328;2023-05-01T07:01:13;20.50;;;14.50;;
25715;SDS011;13573;50.936;4.328;2023-05-01T07:03:39;23.70;;;15.07;;
25715;SDS011;13573;50.936;4.328;2023-05-01T07:06:06;21.73;;;14.53;;
25715;SDS011;13573;50.936;4.328;2023-05-01T07:08:33;24.83;;;16.30;;
25715;SDS011;13573;50.936;4.328;2023-05-01T07:11:00;27.40;;;15.67;;
25715;SDS011;13573;50.936;4.328;2023-05-01T07:13:27;28.10;;;17.97;;
25715;SDS011;13573;50.936;4.328;2023-05-01T07:15:54;25.63;;;16.87;;
25715;SDS011;13573;50.936;4.328;2023-05-01T07:18:20;28.77;;;17.80;;
25715;SDS011;13573;50.936;4.328;2023-05-01T07:20:47;27.33;;;17.63;;
25715;SDS011;13573;50.936;4.328;2023-05-01T07:23:15;32.17;;;18.77;;
25715;SDS011;13573;50.936;4.328;2023-05-01T07:25:43;37.10;;;21.17;;
25715;SDS011;13573;50.936;4.328;2023-05-01T07:28:10;29.83;;;19.03;;
25715;SDS011;13573;50.936;4.328;2023-05-01T07:30:37;29.43;;;18.97;;
25715;SDS011;13573;50.936;4.328;2023-05-01T07:33:04;30.23;;;18.67;;
25715;SDS011;13573;50.936;4.328;2023-05-01T07:35:30;35.13;;;20.40;;
25715;SDS011;13573;50.936;4.328;2023-05-01T07:37:57;31.80;;;20.50;;
25715;SDS011;13573;50.936;4.328;2023-05-01T07:40:24;38.23;;;20.40;;
25715;SDS011;13573;50.936;4.328;2023-05-01T07:42:51;34.90;;;20.87;;
25715;SDS011;13573;50.936;4.328;2023-05-01T07:45:17;42.93;;;23.60;;
25715;SDS011;13573;50.936;4.328;2023-05-01T07:47:44;39.00;;;23.63;;
25715;SDS011;13573;50.936;4.328;2023-05-01T07:50:11;47.57;;;27.43;;
25715;SDS011;13573;50.936;4.328;2023-05-01T07:52:38;49.30;;;24.97;;
25715;SDS011;13573;50.936;4.328;2023-05-01T07:55:05;51.17;;;27.03;;
25715;SDS011;13573;50.936;4.328;2023-05-01T07:57:32;49.07;;;26.83;;
25715;SDS011;13573;50.936;4.328;2023-05-01T08:00:01;57.33;;;27.87;;
25715;SDS011;13573;50.936;4.328;2023-05-01T08:02:27;55.70;;;30.73;;
25715;SDS011;13573;50.936;4.328;2023-05-01T08:04:54;48.70;;;27.53;;
25715;SDS011;13573;50.936;4.328;2023-05-01T08:07:20;58.20;;;31.53;;
25715;SDS011;13573;50.936;4.328;2023-05-01T08:09:47;63.70;;;33.03;;
25715;SDS011;13573;50.936;4.328;2023-05-01T08:12:14;57.93;;;32.10;;
25715;SDS011;13573;50.936;4.328;2023-05-01T08:14:41;57.30;;;31.17;;
25715;SDS011;13573;50.936;4.328;2023-05-01T08:17:07;61.23;;;32.00;;
25715;SDS011;13573;50.936;4.328;2023-05-01T08:19:35;61.27;;;30.90;;
25715;SDS011;13573;50.936;4.328;2023-05-01T08:22:02;54.10;;;29.47;;
25715;SDS011;13573;50.936;4.328;2023-05-01T08:24:28;50.87;;;28.73;;
25715;SDS011;13573;50.936;4.328;2023-05-01T08:26:55;54.43;;;30.57;;
25715;SDS011;13573;50.936;4.328;2023-05-01T08:29:22;54.20;;;28.77;;
25715;SDS011;13573;50.936;4.328;2023-05-01T08:31:50;50.53;;;29.20;;
25715;SDS011;13573;50.936;4.328;2023-05-01T08:34:16;52.03;;;29.07;;
25715;SDS011;13573;50.936;4.328;2023-05-01T08:36:43;53.07;;;29.80;;
25715;SDS011;13573;50.936;4.328;2023-05-01T08:39:10;54.80;;;31.60;;
25715;SDS011;13573;50.936;4.328;2023-05-01T08:41:36;56.90;;;31.60;;
25715;SDS011;13573;50.936;4.328;2023-05-01T08:44:03;50.77;;;30.73;;
25715;SDS011;13573;50.936;4.328;2023-05-01T08:46:37;55.33;;;31.30;;
25715;SDS011;13573;50.936;4.328;2023-05-01T08:49:06;59.43;;;31.60;;
25715;SDS011;13573;50.936;4.328;2023-05-01T08:51:34;55.13;;;31.20;;
25715;SDS011;13573;50.936;4.328;2023-05-01T08:54:03;51.00;;;29.20;;
25715;SDS011;13573;50.936;4.328;2023-05-01T08:56:34;60.87;;;31.53;;
25715;SDS011;13573;50.936;4.328;2023-05-01T08:59:02;58.57;;;31.17;;
25715;SDS011;13573;50.936;4.328;2023-05-01T09:01:31;52.63;;;29.77;;
25715;SDS011;13573;50.936;4.328;2023-05-01T09:04:01;63.23;;;31.23;;
25715;SDS011;13573;50.936;4.328;2023-05-01T09:06:27;56.43;;;29.27;;
25715;SDS011;13573;50.936;4.328;2023-05-01T09:08:54;60.63;;;31.37;;
25715;SDS011;13573;50.936;4.328;2023-05-01T09:11:21;74.33;;;31.63;;
25715;SDS011;13573;50.936;4.328;2023-05-01T09:13:49;59.40;;;31.20;;
25715;SDS011;13573;50.936;4.328;2023-05-01T09:16:18;61.27;;;30.87;;
25715;SDS011;13573;50.936;4.328;2023-05-01T09:18:46;61.37;;;30.37;;
25715;SDS011;13573;50.936;4.328;2023-05-01T09:21:13;55.80;;;31.80;;
25715;SDS011;13573;50.936;4.328;2023-05-01T09:23:40;59.57;;;30.73;;
25715;SDS011;13573;50.936;4.328;2023-05-01T09:26:06;59.17;;;29.57;;
25715;SDS011;13573;50.936;4.328;2023-05-01T09:28:39;58.13;;;30.53;;
25715;SDS011;13573;50.936;4.328;2023-05-01T09:33:53;55.80;;;29.67;;
25715;SDS011;13573;50.936;4.328;2023-05-01T09:36:20;53.23;;;29.23;;
25715;SDS011;13573;50.936;4.328;2023-05-01T09:38:49;51.60;;;28.87;;
25715;SDS011;13573;50.936;4.328;2023-05-01T09:41:16;49.20;;;27.03;;
25715;SDS011;13573;50.936;4.328;2023-05-01T09:43:48;53.67;;;28.27;;
25715;SDS011;13573;50.936;4.328;2023-05-01T09:46:15;49.73;;;26.97;;
25715;SDS011;13573;50.936;4.328;2023-05-01T09:51:20;54.40;;;27.90;;
25715;SDS011;13573;50.936;4.328;2023-05-01T09:53:50;48.77;;;26.07;;
25715;SDS011;13573;50.936;4.328;2023-05-01T09:56:17;50.43;;;27.57;;
25715;SDS011;13573;50.936;4.328;2023-05-01T09:58:45;51.30;;;25.00;;
25715;SDS011;13573;50.936;4.328;2023-05-01T10:01:12;50.90;;;27.60;;
25715;SDS011;13573;50.936;4.328;2023-05-01T10:03:38;45.13;;;24.03;;
25715;SDS011;13573;50.936;4.328;2023-05-01T10:06:08;46.70;;;25.87;;
25715;SDS011;13573;50.936;4.328;2023-05-01T10:11:11;48.63;;;26.53;;
25715;SDS011;13573;50.936;4.328;2023-05-01T10:13:38;43.97;;;24.60;;
25715;SDS011;13573;50.936;4.328;2023-05-01T10:16:05;45.10;;;25.27;;
25715;SDS011;13573;50.936;4.328;2023-05-01T10:18:34;38.20;;;23.17;;
25715;SDS011;13573;50.936;4.328;2023-05-01T10:21:02;40.63;;;24.50;;
25715;SDS011;13573;50.936;4.328;2023-05-01T10:23:29;45.63;;;26.00;;
25715;SDS011;13573;50.936;4.328;2023-05-01T10:25:57;46.73;;;25.80;;
25715;SDS011;13573;50.936;4.328;2023-05-01T10:28:26;48.57;;;25.93;;
25715;SDS011;13573;50.936;4.328;2023-05-01T10:30:54;51.03;;;26.47;;
25715;SDS011;13573;50.936;4.328;2023-05-01T10:33:22;47.50;;;27.10;;
25715;SDS011;13573;50.936;4.328;2023-05-01T10:35:53;39.97;;;23.17;;
25715;SDS011;13573;50.936;4.328;2023-05-01T10:38:21;40.90;;;24.23;;
25715;SDS011;13573;50.936;4.328;2023-05-01T10:40:51;50.70;;;25.83;;
25715;SDS011;13573;50.936;4.328;2023-05-01T10:43:25;47.13;;;23.87;;
25715;SDS011;13573;50.936;4.328;2023-05-01T10:51:21;38.23;;;21.93;;
25715;SDS011;13573;50.936;4.328;2023-05-01T10:54:23;38.17;;;21.73;;
25715;SDS011;13573;50.936;4.328;2023-05-01T10:56:41;35.43;;;20.77;;
25715;SDS011;13573;50.936;4.328;2023-05-01T10:59:08;34.93;;;20.23;;
25715;SDS011;13573;50.936;4.328;2023-05-01T11:01:37;38.73;;;19.73;;
25715;SDS011;13573;50.936;4.328;2023-05-01T11:04:06;36.00;;;21.27;;
25715;SDS011;13573;50.936;4.328;2023-05-01T11:06:40;39.33;;;22.27;;
25715;SDS011;13573;50.936;4.328;2023-05-01T11:11:49;36.87;;;21.03;;
25715;SDS011;13573;50.936;4.328;2023-05-01T11:14:16;32.07;;;19.23;;
25715;SDS011;13573;50.936;4.328;2023-05-01T11:16:44;35.20;;;19.00;;
25715;SDS011;13573;50.936;4.328;2023-05-01T11:19:43;30.13;;;18.90;;
25715;SDS011;13573;50.936;4.328;2023-05-01T11:21:59;32.63;;;17.23;;
25715;SDS011;13573;50.936;4.328;2023-05-01T11:24:30;34.40;;;20.37;;
25715;SDS011;13573;50.936;4.328;2023-05-01T11:26:57;35.20;;;19.87;;
25715;SDS011;13573;50.936;4.328;2023-05-01T11:29:29;31.77;;;18.60;;
25715;SDS011;13573;50.936;4.328;2023-05-01T11:31:57;33.67;;;19.43;;
25715;SDS011;13573;50.936;4.328;2023-05-01T11:34:25;43.30;;;21.50;;
25715;SDS011;13573;50.936;4.328;2023-05-01T11:36:52;35.77;;;18.27;;
25715;SDS011;13573;50.936;4.328;2023-05-01T11:39:18;35.17;;;17.50;;
25715;SDS011;13573;50.936;4.328;2023-05-01T11:41:46;46.70;;;18.73;;
25715;SDS011;13573;50.936;4.328;2023-05-01T11:44:15;31.50;;;16.30;;
25715;SDS011;13573;50.936;4.328;2023-05-01T11:46:42;34.00;;;16.83;;
25715;SDS011;13573;50.936;4.328;2023-05-01T11:49:10;35.33;;;16.90;;
25715;SDS011;13573;50.936;4.328;2023-05-01T11:51:37;28.13;;;15.63;;
25715;SDS011;13573;50.936;4.328;2023-05-01T11:54:05;30.73;;;16.47;;
25715;SDS011;13573;50.936;4.328;2023-05-01T11:56:34;27.03;;;16.27;;
25715;SDS011;13573;50.936;4.328;2023-05-01T11:59:08;28.37;;;15.13;;
25715;SDS011;13573;50.936;4.328;2023-05-01T12:01:42;25.63;;;15.93;;
25715;SDS011;13573;50.936;4.328;2023-05-01T12:04:10;28.73;;;16.43;;
25715;SDS011;13573;50.936;4.328;2023-05-01T12:06:40;26.73;;;16.57;;
25715;SDS011;13573;50.936;4.328;2023-05-01T12:09:10;24.93;;;15.37;;
25715;SDS011;13573;50.936;4.328;2023-05-01T12:11:44;20.43;;;13.43;;
25715;SDS011;13573;50.936;4.328;2023-05-01T12:14:10;24.90;;;14.10;;
25715;SDS011;13573;50.936;4.328;2023-05-01T12:16:39;24.27;;;14.50;;
25715;SDS011;13573;50.936;4.328;2023-05-01T12:19:06;25.00;;;14.10;;
25715;SDS011;13573;50.936;4.328;2023-05-01T12:21:36;27.93;;;15.70;;
25715;SDS011;13573;50.936;4.328;2023-05-01T12:24:09;24.60;;;14.53;;
25715;SDS011;13573;50.936;4.328;2023-05-01T12:26:41;23.07;;;15.23;;
25715;SDS011;13573;50.936;4.328;2023-05-01T12:29:09;25.03;;;15.47;;
25715;SDS011;13573;50.936;4.328;2023-05-01T12:31:36;26.50;;;16.57;;
25715;SDS011;13573;50.936;4.328;2023-05-01T12:34:11;23.97;;;14.77;;
25715;SDS011;13573;50.936;4.328;2023-05-01T12:36:38;22.50;;;13.63;;
25715;SDS011;13573;50.936;4.328;2023-05-01T12:39:06;26.60;;;15.17;;
25715;SDS011;13573;50.936;4.328;2023-05-01T12:41:36;23.43;;;13.73;;
25715;SDS011;13573;50.936;4.328;2023-05-01T12:46:41;25.03;;;14.03;;
25715;SDS011;13573;50.936;4.328;2023-05-01T12:49:15;21.30;;;12.93;;
25715;SDS011;13573;50.936;4.328;2023-05-01T12:51:48;21.87;;;13.80;;
25715;SDS011;13573;50.936;4.328;2023-05-01T12:54:18;20.70;;;11.90;;
25715;SDS011;13573;50.936;4.328;2023-05-01T12:59:33;23.10;;;12.77;;
25715;SDS011;13573;50.936;4.328;2023-05-01T13:02:03;18.97;;;12.90;;
25715;SDS011;13573;50.936;4.328;2023-05-01T13:04:30;20.77;;;13.03;;
25715;SDS011;13573;50.936;4.328;2023-05-01T13:06:57;21.97;;;13.10;;
25715;SDS011;13573;50.936;4.328;2023-05-01T13:09:26;22.13;;;13.80;;
25715;SDS011;13573;50.936;4.328;2023-05-01T13:11:57;24.07;;;14.80;;
25715;SDS011;13573;50.936;4.328;2023-05-01T13:14:25;21.10;;;13.47;;
25715;SDS011;13573;50.936;4.328;2023-05-01T13:16:52;20.23;;;13.57;;
25715;SDS011;13573;50.936;4.328;2023-05-01T13:19:23;23.23;;;13.87;;
25715;SDS011;13573;50.936;4.328;2023-05-01T13:21:54;26.93;;;13.63;;
25715;SDS011;13573;50.936;4.328;2023-05-01T13:24:23;24.93;;;13.53;;
25715;SDS011;13573;50.936;4.328;2023-05-01T13:26:55;22.27;;;14.57;;
25715;SDS011;13573;50.936;4.328;2023-05-01T13:29:24;24.00;;;14.90;;
25715;SDS011;13573;50.936;4.328;2023-05-01T13:31:51;21.83;;;13.73;;
25715;SDS011;13573;50.936;4.328;2023-05-01T13:34:22;25.10;;;13.50;;
25715;SDS011;13573;50.936;4.328;2023-05-01T13:36:53;21.43;;;12.57;;
25715;SDS011;13573;50.936;4.328;2023-05-01T13:39:21;22.03;;;13.47;;
25715;SDS011;13573;50.936;4.328;2023-05-01T13:41:48;26.03;;;14.47;;
25715;SDS011;13573;50.936;4.328;2023-05-01T13:44:16;23.83;;;14.03;;
25715;SDS011;13573;50.936;4.328;2023-05-01T13:46:44;25.57;;;14.80;;
25715;SDS011;13573;50.936;4.328;2023-05-01T13:49:11;25.80;;;14.77;;
25715;SDS011;13573;50.936;4.328;2023-05-01T13:51:41;24.37;;;13.80;;
25715;SDS011;13573;50.936;4.328;2023-05-01T13:54:08;21.23;;;13.73;;
25715;SDS011;13573;50.936;4.328;2023-05-01T13:56:37;21.33;;;13.50;;
25715;SDS011;13573;50.936;4.328;2023-05-01T13:59:05;24.03;;;12.80;;
25715;SDS011;13573;50.936;4.328;2023-05-01T14:01:37;23.00;;;13.73;;
25715;SDS011;13573;50.936;4.328;2023-05-01T14:04:09;20.93;;;14.23;;
25715;SDS011;13573;50.936;4.328;2023-05-01T14:06:42;21.43;;;14.73;;
25715;SDS011;13573;50.936;4.328;2023-05-01T14:09:11;22.80;;;15.10;;
25715;SDS011;13573;50.936;4.328;2023-05-01T14:11:40;25.50;;;15.40;;
25715;SDS011;13573;50.936;4.328;2023-05-01T14:14:10;23.13;;;14.53;;
25715;SDS011;13573;50.936;4.328;2023-05-01T14:16:38;22.40;;;14.97;;
25715;SDS011;13573;50.936;4.328;2023-05-01T14:19:06;22.97;;;15.50;;
25715;SDS011;13573;50.936;4.328;2023-05-01T14:21:37;27.63;;;16.60;;
25715;SDS011;13573;50.936;4.328;2023-05-01T14:24:07;22.90;;;15.30;;
25715;SDS011;13573;50.936;4.328;2023-05-01T14:26:36;23.00;;;15.10;;
25715;SDS011;13573;50.936;4.328;2023-05-01T14:29:06;25.67;;;15.80;;
25715;SDS011;13573;50.936;4.328;2023-05-01T14:31:36;24.10;;;15.43;;
25715;SDS011;13573;50.936;4.328;2023-05-01T14:34:03;26.23;;;16.03;;
25715;SDS011;13573;50.936;4.328;2023-05-01T14:36:31;22.50;;;15.10;;
25715;SDS011;13573;50.936;4.328;2023-05-01T14:38:59;27.43;;;16.40;;
25715;SDS011;13573;50.936;4.328;2023-05-01T14:41:26;26.20;;;15.13;;
25715;SDS011;13573;50.936;4.328;2023-05-01T14:43:54;24.70;;;14.90;;
25715;SDS011;13573;50.936;4.328;2023-05-01T14:46:25;23.20;;;14.33;;
25715;SDS011;13573;50.936;4.328;2023-05-01T14:48:51;23.47;;;15.57;;
25715;SDS011;13573;50.936;4.328;2023-05-01T14:51:18;23.77;;;15.20;;
25715;SDS011;13573;50.936;4.328;2023-05-01T14:53:45;24.77;;;16.63;;
25715;SDS011;13573;50.936;4.328;2023-05-01T14:56:11;27.03;;;16.40;;
25715;SDS011;13573;50.936;4.328;2023-05-01T14:58:38;27.43;;;15.97;;
25715;SDS011;13573;50.936;4.328;2023-05-01T15:01:06;27.23;;;15.90;;
25715;SDS011;13573;50.936;4.328;2023-05-01T15:03:33;23.37;;;14.67;;
25715;SDS011;13573;50.936;4.328;2023-05-01T15:06:03;27.83;;;16.47;;